West Boothbay Harbor, ME (04575)

20:19 EST le 11 février 2016 (GMT -0500)
Harborfields.com | | Change Station
CLOSE
Current Station
Stations météorologiques personnelles
Location: West Boothbay Harbor, ME
Altitude: 0 ft
Stations météo à proximité

Alt. 0 ft 43.84 °N, 69.65 °W | Updated 7 minutes ago

Partiellement nuageux
Partiellement nuageux
17.4 ° F
Paraît 17 ° F
N
3.0
Vent Variable Vent de ONO
Gusts 13.0 mph

Aujourd'hui
Haut(e) -- | Bas -- ° F
--% Risque de précip.
Hier
Haut(e) -- | Bas -- ° F
Precip. -- pouce
Pression 29.81 pouce
Visibilité 10.0 Miles terrestres
Nuages Nuages épars 7500 ft
Refroidissement éolien 17 ° F
Point de rosée 5 ° F
Humidité 57%
Précipitations 0.00 pouce
Profondeur de la couche neigeuse Non disponible.
6:43 AM 5:02 PM
Lune montante, 16% visible
METAR KIWI 120053Z AUTO VRB06G15KT 10SM SCT075 M08/M18 A2981 RMK AO2 SLP094 T10831183
Pression 29.81 pouce
Visibilité 10.0 Miles terrestres
Nuages Nuages épars 7500 ft
Refroidissement éolien 17 ° F
Point de rosée 5 ° F
Humidité 57%
Précipitations 0.00 pouce
Profondeur de la couche neigeuse Non disponible.
6:43 AM 5:02 PM
Lune montante, 16% visible
METAR KIWI 120053Z AUTO VRB06G15KT 10SM SCT075 M08/M18 A2981 RMK AO2 SLP094 T10831183

10-Day Weather Forecast

Almanac

Astronomie

Feb. 11, 2016 Lever Coucher
Temps réel
Crépuscule civil
Crépuscule nautique
Crépuscule astronomique
Lune
Durée de lumière visible
Longueur du jour
Tomorrow will be .
, % of the Moon is Illuminated

Extrêmes aujourd'hui

State Highs State Lows

Community

WunderPhotos

Upload Photos

1,892,205 Photos téléchargées !

WunderBlog® & News

Nearby

Qualité de l'air

  Qualité de l'air Indice de la qualité de l'air Polluant
Not available.

Épaisseur de neige

Station Depth Altitude

Activité sismique

Ville Distance Mag. Time & Date
Minimum magnitude displayed is 2.5.

Températures des eaux côtières

Lieu Température

Stations

Stations météo à proximité

Emplacement de la station Température Refroidissement éolien Point de rosée Humidité Vent Precip. Alt. Mise à jour Type
                   

Watches & Warnings

There are currently no watches in effect.